Аэропорт: Уральск. Уральск

ICAO: UARR

METAR:
2021-01-19 12:30:00
UARR 191230Z 28004MPS CAVOK M17/M20 Q1014 R22/451045 NOSIG RMK QFE757/1010
METAR:
2021-01-19 11:01:00
TAF UARR 191101Z 1912/1921 28005MPS 9999 SCT033 TEMPO 1912/1915 31005MPS